sensor_id;sensor_type;location;lat;lon;timestamp;temperature;humidity
52965;DHT22;42923;53.220;6.528;2023-08-06T00:01:52;13.50;99.90
52965;DHT22;42923;53.220;6.528;2023-08-06T00:04:17;13.50;99.90
52965;DHT22;42923;53.220;6.528;2023-08-06T00:06:43;13.50;99.90
52965;DHT22;42923;53.220;6.528;2023-08-06T00:09:09;13.50;99.90
52965;DHT22;42923;53.220;6.528;2023-08-06T00:11:34;13.50;99.90
52965;DHT22;42923;53.220;6.528;2023-08-06T00:14:00;13.50;99.90
52965;DHT22;42923;53.220;6.528;2023-08-06T00:16:26;13.50;99.90
52965;DHT22;42923;53.220;6.528;2023-08-06T00:18:51;13.50;99.90
52965;DHT22;42923;53.220;6.528;2023-08-06T00:21:17;13.50;99.90
52965;DHT22;42923;53.220;6.528;2023-08-06T00:23:43;13.50;99.90
52965;DHT22;42923;53.220;6.528;2023-08-06T00:26:09;13.50;99.90
52965;DHT22;42923;53.220;6.528;2023-08-06T00:28:34;13.50;99.90
52965;DHT22;42923;53.220;6.528;2023-08-06T00:31:00;13.50;99.90
52965;DHT22;42923;53.220;6.528;2023-08-06T00:33:26;13.50;99.90
52965;DHT22;42923;53.220;6.528;2023-08-06T00:35:51;13.50;99.90
52965;DHT22;42923;53.220;6.528;2023-08-06T00:38:17;13.50;99.90
52965;DHT22;42923;53.220;6.528;2023-08-06T00:40:43;13.60;99.90
52965;DHT22;42923;53.220;6.528;2023-08-06T00:43:09;13.60;99.90
52965;DHT22;42923;53.220;6.528;2023-08-06T00:45:36;13.50;99.90
52965;DHT22;42923;53.220;6.528;2023-08-06T00:48:04;13.60;99.90
52965;DHT22;42923;53.220;6.528;2023-08-06T00:50:31;13.50;99.90
52965;DHT22;42923;53.220;6.528;2023-08-06T00:52:56;13.50;99.90
52965;DHT22;42923;53.220;6.528;2023-08-06T00:55:23;13.50;99.90
52965;DHT22;42923;53.220;6.528;2023-08-06T00:57:49;13.50;99.90
52965;DHT22;42923;53.220;6.528;2023-08-06T01:00:16;13.50;99.90
52965;DHT22;42923;53.220;6.528;2023-08-06T01:02:43;13.50;99.90
52965;DHT22;42923;53.220;6.528;2023-08-06T01:05:08;13.50;99.90
52965;DHT22;42923;53.220;6.528;2023-08-06T01:07:51;13.50;99.90
52965;DHT22;42923;53.220;6.528;2023-08-06T01:10:46;13.50;99.90
52965;DHT22;42923;53.220;6.528;2023-08-06T01:13:27;13.50;99.90
52965;DHT22;42923;53.220;6.528;2023-08-06T01:15:55;13.60;99.90
52965;DHT22;42923;53.220;6.528;2023-08-06T01:18:23;13.50;99.90
52965;DHT22;42923;53.220;6.528;2023-08-06T01:20:49;13.50;99.90
52965;DHT22;42923;53.220;6.528;2023-08-06T01:23:15;13.50;99.90
52965;DHT22;42923;53.220;6.528;2023-08-06T01:25:45;13.60;99.90
52965;DHT22;42923;53.220;6.528;2023-08-06T01:28:22;13.50;99.90
52965;DHT22;42923;53.220;6.528;2023-08-06T01:30:49;13.60;99.90
52965;DHT22;42923;53.220;6.528;2023-08-06T01:33:19;13.50;99.90
52965;DHT22;42923;53.220;6.528;2023-08-06T01:35:46;13.50;99.90
52965;DHT22;42923;53.220;6.528;2023-08-06T01:38:14;13.50;99.90
52965;DHT22;42923;53.220;6.528;2023-08-06T01:40:39;13.50;99.90
52965;DHT22;42923;53.220;6.528;2023-08-06T01:43:05;13.50;99.90
52965;DHT22;42923;53.220;6.528;2023-08-06T01:45:31;13.50;99.90
52965;DHT22;42923;53.220;6.528;2023-08-06T01:47:56;13.50;99.90
52965;DHT22;42923;53.220;6.528;2023-08-06T01:50:23;13.50;99.90
52965;DHT22;42923;53.220;6.528;2023-08-06T01:52:51;13.50;99.90
52965;DHT22;42923;53.220;6.528;2023-08-06T01:55:18;13.50;99.90
52965;DHT22;42923;53.220;6.528;2023-08-06T01:57:44;13.50;99.90
52965;DHT22;42923;53.220;6.528;2023-08-06T02:00:11;13.50;99.90
52965;DHT22;42923;53.220;6.528;2023-08-06T02:02:39;13.60;99.90
52965;DHT22;42923;53.220;6.528;2023-08-06T02:05:06;13.50;99.90
52965;DHT22;42923;53.220;6.528;2023-08-06T02:07:32;13.60;99.90
52965;DHT22;42923;53.220;6.528;2023-08-06T02:09:58;13.50;99.90
52965;DHT22;42923;53.220;6.528;2023-08-06T02:12:24;13.50;99.90
52965;DHT22;42923;53.220;6.528;2023-08-06T02:14:50;13.50;99.90
52965;DHT22;42923;53.220;6.528;2023-08-06T02:17:15;13.50;99.90
52965;DHT22;42923;53.220;6.528;2023-08-06T02:19:41;13.60;99.90
52965;DHT22;42923;53.220;6.528;2023-08-06T02:22:08;13.60;99.90
52965;DHT22;42923;53.220;6.528;2023-08-06T02:24:34;13.60;99.90
52965;DHT22;42923;53.220;6.528;2023-08-06T02:27:00;13.60;99.90
52965;DHT22;42923;53.220;6.528;2023-08-06T02:29:26;13.50;99.90
52965;DHT22;42923;53.220;6.528;2023-08-06T02:31:51;13.50;99.90
52965;DHT22;42923;53.220;6.528;2023-08-06T02:34:17;13.60;99.90
52965;DHT22;42923;53.220;6.528;2023-08-06T02:36:44;13.50;99.90
52965;DHT22;42923;53.220;6.528;2023-08-06T02:39:10;13.50;99.90
52965;DHT22;42923;53.220;6.528;2023-08-06T02:41:36;13.60;99.90
52965;DHT22;42923;53.220;6.528;2023-08-06T02:44:01;13.50;99.90
52965;DHT22;42923;53.220;6.528;2023-08-06T02:46:28;13.60;99.90
52965;DHT22;42923;53.220;6.528;2023-08-06T02:48:53;13.50;99.90
52965;DHT22;42923;53.220;6.528;2023-08-06T02:51:19;13.60;99.90
52965;DHT22;42923;53.220;6.528;2023-08-06T02:53:45;13.60;99.90
52965;DHT22;42923;53.220;6.528;2023-08-06T02:56:14;13.60;99.90
52965;DHT22;42923;53.220;6.528;2023-08-06T02:58:55;13.60;99.90
52965;DHT22;42923;53.220;6.528;2023-08-06T03:01:31;13.60;99.90
52965;DHT22;42923;53.220;6.528;2023-08-06T03:04:03;13.60;99.90
52965;DHT22;42923;53.220;6.528;2023-08-06T03:06:34;13.60;99.90
52965;DHT22;42923;53.220;6.528;2023-08-06T03:09:01;13.60;99.90
52965;DHT22;42923;53.220;6.528;2023-08-06T03:11:27;13.60;99.90
52965;DHT22;42923;53.220;6.528;2023-08-06T03:13:58;13.60;99.90
52965;DHT22;42923;53.220;6.528;2023-08-06T03:16:24;13.60;99.90
52965;DHT22;42923;53.220;6.528;2023-08-06T03:18:50;13.60;99.90
52965;DHT22;42923;53.220;6.528;2023-08-06T03:21:16;13.60;99.90
52965;DHT22;42923;53.220;6.528;2023-08-06T03:23:41;13.60;99.90
52965;DHT22;42923;53.220;6.528;2023-08-06T03:26:09;13.60;99.90
52965;DHT22;42923;53.220;6.528;2023-08-06T03:28:35;13.60;99.90
52965;DHT22;42923;53.220;6.528;2023-08-06T03:31:02;13.50;99.90
52965;DHT22;42923;53.220;6.528;2023-08-06T03:33:33;13.60;99.90
52965;DHT22;42923;53.220;6.528;2023-08-06T03:36:01;13.50;99.90
52965;DHT22;42923;53.220;6.528;2023-08-06T03:38:28;13.60;99.90
52965;DHT22;42923;53.220;6.528;2023-08-06T03:40:54;13.60;99.90
52965;DHT22;42923;53.220;6.528;2023-08-06T03:43:20;13.60;99.90
52965;DHT22;42923;53.220;6.528;2023-08-06T03:45:46;13.50;99.90
52965;DHT22;42923;53.220;6.528;2023-08-06T03:48:12;13.50;99.90
52965;DHT22;42923;53.220;6.528;2023-08-06T03:50:38;13.50;99.90
52965;DHT22;42923;53.220;6.528;2023-08-06T03:53:04;13.50;99.90
52965;DHT22;42923;53.220;6.528;2023-08-06T03:55:30;13.50;99.90
52965;DHT22;42923;53.220;6.528;2023-08-06T03:57:56;13.40;99.90
52965;DHT22;42923;53.220;6.528;2023-08-06T04:00:21;13.60;99.90
52965;DHT22;42923;53.220;6.528;2023-08-06T04:02:51;13.40;99.90
52965;DHT22;42923;53.220;6.528;2023-08-06T04:05:17;13.50;99.90
52965;DHT22;42923;53.220;6.528;2023-08-06T04:07:43;13.60;99.90
52965;DHT22;42923;53.220;6.528;2023-08-06T04:10:09;13.50;99.90
52965;DHT22;42923;53.220;6.528;2023-08-06T04:12:35;13.60;99.90
52965;DHT22;42923;53.220;6.528;2023-08-06T04:15:05;13.60;99.90
52965;DHT22;42923;53.220;6.528;2023-08-06T04:17:31;13.60;99.90
52965;DHT22;42923;53.220;6.528;2023-08-06T04:19:57;13.60;99.90
52965;DHT22;42923;53.220;6.528;2023-08-06T04:22:26;13.60;99.90
52965;DHT22;42923;53.220;6.528;2023-08-06T04:24:52;13.60;99.90
52965;DHT22;42923;53.220;6.528;2023-08-06T04:27:19;13.60;99.90
52965;DHT22;42923;53.220;6.528;2023-08-06T04:29:46;13.60;99.90
52965;DHT22;42923;53.220;6.528;2023-08-06T04:32:13;13.50;99.90
52965;DHT22;42923;53.220;6.528;2023-08-06T04:34:43;13.70;99.90
52965;DHT22;42923;53.220;6.528;2023-08-06T04:37:09;13.70;99.90
52965;DHT22;42923;53.220;6.528;2023-08-06T04:39:35;13.70;99.90
52965;DHT22;42923;53.220;6.528;2023-08-06T04:42:01;13.70;99.90
52965;DHT22;42923;53.220;6.528;2023-08-06T04:44:27;13.70;99.90
52965;DHT22;42923;53.220;6.528;2023-08-06T04:46:53;13.70;99.90
52965;DHT22;42923;53.220;6.528;2023-08-06T04:49:22;13.70;99.90
52965;DHT22;42923;53.220;6.528;2023-08-06T04:51:48;13.80;99.90
52965;DHT22;42923;53.220;6.528;2023-08-06T04:54:14;13.70;99.90
52965;DHT22;42923;53.220;6.528;2023-08-06T04:56:40;13.90;99.90
52965;DHT22;42923;53.220;6.528;2023-08-06T04:59:05;13.80;99.90
52965;DHT22;42923;53.220;6.528;2023-08-06T05:01:31;13.80;99.90
52965;DHT22;42923;53.220;6.528;2023-08-06T05:03:57;13.80;99.90
52965;DHT22;42923;53.220;6.528;2023-08-06T05:06:23;13.90;99.90
52965;DHT22;42923;53.220;6.528;2023-08-06T05:08:49;13.90;99.90
52965;DHT22;42923;53.220;6.528;2023-08-06T05:11:14;13.80;99.90
52965;DHT22;42923;53.220;6.528;2023-08-06T05:13:40;13.90;99.90
52965;DHT22;42923;53.220;6.528;2023-08-06T05:16:06;13.90;99.90
52965;DHT22;42923;53.220;6.528;2023-08-06T05:18:31;13.80;99.90
52965;DHT22;42923;53.220;6.528;2023-08-06T05:20:59;13.80;99.90
52965;DHT22;42923;53.220;6.528;2023-08-06T05:23:25;13.80;99.90
52965;DHT22;42923;53.220;6.528;2023-08-06T05:25:51;13.70;99.90
52965;DHT22;42923;53.220;6.528;2023-08-06T05:28:17;13.70;99.90
52965;DHT22;42923;53.220;6.528;2023-08-06T05:30:42;13.70;99.90
52965;DHT22;42923;53.220;6.528;2023-08-06T05:33:08;13.70;99.90
52965;DHT22;42923;53.220;6.528;2023-08-06T05:35:34;13.70;99.90
52965;DHT22;42923;53.220;6.528;2023-08-06T05:38:00;13.70;99.90
52965;DHT22;42923;53.220;6.528;2023-08-06T05:40:25;13.70;99.90
52965;DHT22;42923;53.220;6.528;2023-08-06T05:42:54;13.80;99.90
52965;DHT22;42923;53.220;6.528;2023-08-06T05:45:20;13.80;99.90
52965;DHT22;42923;53.220;6.528;2023-08-06T05:47:48;13.80;99.90
52965;DHT22;42923;53.220;6.528;2023-08-06T05:50:14;13.90;99.90
52965;DHT22;42923;53.220;6.528;2023-08-06T05:52:39;14.00;99.90
52965;DHT22;42923;53.220;6.528;2023-08-06T05:55:05;14.10;99.90
52965;DHT22;42923;53.220;6.528;2023-08-06T05:57:31;14.20;99.90
52965;DHT22;42923;53.220;6.528;2023-08-06T05:59:57;14.30;99.90
52965;DHT22;42923;53.220;6.528;2023-08-06T06:02:23;14.40;99.90
52965;DHT22;42923;53.220;6.528;2023-08-06T06:04:48;14.60;99.90
52965;DHT22;42923;53.220;6.528;2023-08-06T06:07:14;14.60;99.90
52965;DHT22;42923;53.220;6.528;2023-08-06T06:09:40;14.70;99.90
52965;DHT22;42923;53.220;6.528;2023-08-06T06:12:06;14.80;99.90
52965;DHT22;42923;53.220;6.528;2023-08-06T06:14:32;14.90;99.90
52965;DHT22;42923;53.220;6.528;2023-08-06T06:16:59;15.00;99.90
52965;DHT22;42923;53.220;6.528;2023-08-06T06:19:25;15.10;99.90
52965;DHT22;42923;53.220;6.528;2023-08-06T06:21:51;15.10;99.90
52965;DHT22;42923;53.220;6.528;2023-08-06T06:24:17;15.30;99.90
52965;DHT22;42923;53.220;6.528;2023-08-06T06:26:43;15.30;99.90
52965;DHT22;42923;53.220;6.528;2023-08-06T06:29:08;15.40;99.90
52965;DHT22;42923;53.220;6.528;2023-08-06T06:31:34;15.50;99.90
52965;DHT22;42923;53.220;6.528;2023-08-06T06:34:00;15.60;99.90
52965;DHT22;42923;53.220;6.528;2023-08-06T06:36:26;15.60;99.90
52965;DHT22;42923;53.220;6.528;2023-08-06T06:38:52;15.70;99.90
52965;DHT22;42923;53.220;6.528;2023-08-06T06:41:17;15.70;99.90
52965;DHT22;42923;53.220;6.528;2023-08-06T06:43:44;15.80;99.90
52965;DHT22;42923;53.220;6.528;2023-08-06T06:46:10;15.80;99.90
52965;DHT22;42923;53.220;6.528;2023-08-06T06:48:35;15.90;99.90
52965;DHT22;42923;53.220;6.528;2023-08-06T06:51:01;16.00;99.90
52965;DHT22;42923;53.220;6.528;2023-08-06T06:53:27;16.00;99.90
52965;DHT22;42923;53.220;6.528;2023-08-06T06:56:01;16.00;99.90
52965;DHT22;42923;53.220;6.528;2023-08-06T06:58:27;16.10;99.90
52965;DHT22;42923;53.220;6.528;2023-08-06T07:00:52;16.20;99.90
52965;DHT22;42923;53.220;6.528;2023-08-06T07:03:19;16.30;99.90
52965;DHT22;42923;53.220;6.528;2023-08-06T07:05:46;16.40;99.90
52965;DHT22;42923;53.220;6.528;2023-08-06T07:08:12;16.40;99.90
52965;DHT22;42923;53.220;6.528;2023-08-06T07:10:38;16.50;99.90
52965;DHT22;42923;53.220;6.528;2023-08-06T07:13:04;16.50;99.90
52965;DHT22;42923;53.220;6.528;2023-08-06T07:15:29;16.50;99.90
52965;DHT22;42923;53.220;6.528;2023-08-06T07:17:55;16.60;99.90
52965;DHT22;42923;53.220;6.528;2023-08-06T07:20:21;16.70;99.90
52965;DHT22;42923;53.220;6.528;2023-08-06T07:22:47;16.80;99.90
52965;DHT22;42923;53.220;6.528;2023-08-06T07:25:12;16.80;99.90
52965;DHT22;42923;53.220;6.528;2023-08-06T07:27:38;16.90;99.90
52965;DHT22;42923;53.220;6.528;2023-08-06T07:30:05;16.90;99.90
52965;DHT22;42923;53.220;6.528;2023-08-06T07:32:31;16.90;99.90
52965;DHT22;42923;53.220;6.528;2023-08-06T07:34:57;16.90;99.90
52965;DHT22;42923;53.220;6.528;2023-08-06T07:37:26;17.00;99.90
52965;DHT22;42923;53.220;6.528;2023-08-06T07:39:57;17.00;99.90
52965;DHT22;42923;53.220;6.528;2023-08-06T07:42:23;17.00;99.90
52965;DHT22;42923;53.220;6.528;2023-08-06T07:44:53;17.00;99.90
52965;DHT22;42923;53.220;6.528;2023-08-06T07:47:19;17.10;99.90
52965;DHT22;42923;53.220;6.528;2023-08-06T07:49:45;17.30;99.90
52965;DHT22;42923;53.220;6.528;2023-08-06T07:52:11;17.40;99.90
52965;DHT22;42923;53.220;6.528;2023-08-06T07:54:37;17.70;99.90
52965;DHT22;42923;53.220;6.528;2023-08-06T07:57:03;17.90;99.90
52965;DHT22;42923;53.220;6.528;2023-08-06T07:59:29;18.10;99.90
52965;DHT22;42923;53.220;6.528;2023-08-06T08:01:54;18.30;99.90
52965;DHT22;42923;53.220;6.528;2023-08-06T08:04:20;18.30;99.90
52965;DHT22;42923;53.220;6.528;2023-08-06T08:06:47;18.20;99.90
52965;DHT22;42923;53.220;6.528;2023-08-06T08:09:13;18.20;99.90
52965;DHT22;42923;53.220;6.528;2023-08-06T08:11:40;18.20;99.90
52965;DHT22;42923;53.220;6.528;2023-08-06T08:14:06;18.20;99.90
52965;DHT22;42923;53.220;6.528;2023-08-06T08:16:32;18.20;99.90
52965;DHT22;42923;53.220;6.528;2023-08-06T08:18:57;18.10;99.90
52965;DHT22;42923;53.220;6.528;2023-08-06T08:21:23;18.10;99.90
52965;DHT22;42923;53.220;6.528;2023-08-06T08:23:52;18.20;99.90
52965;DHT22;42923;53.220;6.528;2023-08-06T08:26:17;18.30;99.90
52965;DHT22;42923;53.220;6.528;2023-08-06T08:28:43;18.30;99.90
52965;DHT22;42923;53.220;6.528;2023-08-06T08:31:10;18.40;99.90
52965;DHT22;42923;53.220;6.528;2023-08-06T08:33:39;18.40;99.90
52965;DHT22;42923;53.220;6.528;2023-08-06T08:36:05;18.50;99.90
52965;DHT22;42923;53.220;6.528;2023-08-06T08:38:31;18.60;99.90
52965;DHT22;42923;53.220;6.528;2023-08-06T08:40:57;18.70;99.90
52965;DHT22;42923;53.220;6.528;2023-08-06T08:43:23;18.80;99.90
52965;DHT22;42923;53.220;6.528;2023-08-06T08:45:54;18.90;99.90
52965;DHT22;42923;53.220;6.528;2023-08-06T08:48:24;19.10;99.90
52965;DHT22;42923;53.220;6.528;2023-08-06T08:50:51;19.20;99.90
52965;DHT22;42923;53.220;6.528;2023-08-06T08:53:17;19.40;99.90
52965;DHT22;42923;53.220;6.528;2023-08-06T08:55:49;19.40;99.90
52965;DHT22;42923;53.220;6.528;2023-08-06T08:58:15;19.50;99.90
52965;DHT22;42923;53.220;6.528;2023-08-06T09:00:46;19.50;99.90
52965;DHT22;42923;53.220;6.528;2023-08-06T09:03:12;19.50;99.90
52965;DHT22;42923;53.220;6.528;2023-08-06T09:05:41;19.50;99.90
52965;DHT22;42923;53.220;6.528;2023-08-06T09:08:12;19.60;99.90
52965;DHT22;42923;53.220;6.528;2023-08-06T09:10:41;19.70;99.90
52965;DHT22;42923;53.220;6.528;2023-08-06T09:13:07;19.80;99.90
52965;DHT22;42923;53.220;6.528;2023-08-06T09:15:34;19.80;99.90
52965;DHT22;42923;53.220;6.528;2023-08-06T09:18:00;19.90;99.90
52965;DHT22;42923;53.220;6.528;2023-08-06T09:20:34;19.90;99.90
52965;DHT22;42923;53.220;6.528;2023-08-06T09:23:09;19.90;99.90
52965;DHT22;42923;53.220;6.528;2023-08-06T09:25:39;20.20;99.90
52965;DHT22;42923;53.220;6.528;2023-08-06T09:28:06;20.30;99.90
52965;DHT22;42923;53.220;6.528;2023-08-06T09:30:33;20.40;99.90
52965;DHT22;42923;53.220;6.528;2023-08-06T09:33:00;20.60;99.90
52965;DHT22;42923;53.220;6.528;2023-08-06T09:35:30;20.70;99.90
52965;DHT22;42923;53.220;6.528;2023-08-06T09:38:05;20.70;99.90
52965;DHT22;42923;53.220;6.528;2023-08-06T09:40:32;20.80;99.90
52965;DHT22;42923;53.220;6.528;2023-08-06T09:42:59;20.80;99.90
52965;DHT22;42923;53.220;6.528;2023-08-06T09:45:43;20.70;99.90
52965;DHT22;42923;53.220;6.528;2023-08-06T09:48:09;20.80;99.90
52965;DHT22;42923;53.220;6.528;2023-08-06T09:50:37;20.80;99.90
52965;DHT22;42923;53.220;6.528;2023-08-06T09:53:07;20.80;99.90
52965;DHT22;42923;53.220;6.528;2023-08-06T09:55:36;21.00;99.90
52965;DHT22;42923;53.220;6.528;2023-08-06T09:58:02;21.10;99.90
52965;DHT22;42923;53.220;6.528;2023-08-06T10:00:31;21.10;99.90
52965;DHT22;42923;53.220;6.528;2023-08-06T10:03:00;21.20;99.90
52965;DHT22;42923;53.220;6.528;2023-08-06T10:05:26;21.30;99.90
52965;DHT22;42923;53.220;6.528;2023-08-06T10:07:54;21.30;99.90
52965;DHT22;42923;53.220;6.528;2023-08-06T10:10:21;21.20;99.90
52965;DHT22;42923;53.220;6.528;2023-08-06T10:12:50;21.30;99.90
52965;DHT22;42923;53.220;6.528;2023-08-06T10:15:22;21.40;99.90
52965;DHT22;42923;53.220;6.528;2023-08-06T10:17:50;21.50;99.90
52965;DHT22;42923;53.220;6.528;2023-08-06T10:20:17;21.40;99.90
52965;DHT22;42923;53.220;6.528;2023-08-06T10:22:44;21.50;99.90
52965;DHT22;42923;53.220;6.528;2023-08-06T10:25:11;21.60;99.90
52965;DHT22;42923;53.220;6.528;2023-08-06T10:27:54;21.80;99.90
52965;DHT22;42923;53.220;6.528;2023-08-06T10:30:33;22.10;99.90
52965;DHT22;42923;53.220;6.528;2023-08-06T10:33:03;22.40;99.90
52965;DHT22;42923;53.220;6.528;2023-08-06T10:35:41;22.60;99.90
52965;DHT22;42923;53.220;6.528;2023-08-06T10:38:22;22.80;99.90
52965;DHT22;42923;53.220;6.528;2023-08-06T10:43:32;23.10;99.90
52965;DHT22;42923;53.220;6.528;2023-08-06T10:45:59;23.20;99.90
52965;DHT22;42923;53.220;6.528;2023-08-06T10:51:00;23.50;99.90
52965;DHT22;42923;53.220;6.528;2023-08-06T10:53:26;23.50;99.90
52965;DHT22;42923;53.220;6.528;2023-08-06T10:55:52;23.60;99.90
52965;DHT22;42923;53.220;6.528;2023-08-06T10:58:18;23.60;99.90
52965;DHT22;42923;53.220;6.528;2023-08-06T11:00:44;23.70;99.90
52965;DHT22;42923;53.220;6.528;2023-08-06T11:03:09;23.80;99.90
52965;DHT22;42923;53.220;6.528;2023-08-06T11:05:48;23.90;99.90
52965;DHT22;42923;53.220;6.528;2023-08-06T11:08:24;23.90;99.90
52965;DHT22;42923;53.220;6.528;2023-08-06T11:10:50;24.00;99.90
52965;DHT22;42923;53.220;6.528;2023-08-06T11:13:20;24.20;99.90
52965;DHT22;42923;53.220;6.528;2023-08-06T11:15:45;24.20;99.90
52965;DHT22;42923;53.220;6.528;2023-08-06T11:18:11;24.20;99.90
52965;DHT22;42923;53.220;6.528;2023-08-06T11:20:38;24.20;99.90
52965;DHT22;42923;53.220;6.528;2023-08-06T11:23:05;24.30;99.90
52965;DHT22;42923;53.220;6.528;2023-08-06T11:25:30;24.50;99.90
52965;DHT22;42923;53.220;6.528;2023-08-06T11:27:56;24.40;99.90
52965;DHT22;42923;53.220;6.528;2023-08-06T11:30:22;24.50;99.90
52965;DHT22;42923;53.220;6.528;2023-08-06T11:32:48;24.40;99.90
52965;DHT22;42923;53.220;6.528;2023-08-06T11:35:15;24.30;99.90
52965;DHT22;42923;53.220;6.528;2023-08-06T11:37:48;24.40;99.90
52965;DHT22;42923;53.220;6.528;2023-08-06T11:40:16;24.50;99.90
52965;DHT22;42923;53.220;6.528;2023-08-06T11:42:42;24.40;99.90
52965;DHT22;42923;53.220;6.528;2023-08-06T11:45:09;24.30;99.90
52965;DHT22;42923;53.220;6.528;2023-08-06T11:47:38;24.30;99.90
52965;DHT22;42923;53.220;6.528;2023-08-06T11:50:05;24.10;99.90
52965;DHT22;42923;53.220;6.528;2023-08-06T11:52:31;23.90;99.90
52965;DHT22;42923;53.220;6.528;2023-08-06T11:55:01;23.90;99.90
52965;DHT22;42923;53.220;6.528;2023-08-06T11:57:37;24.00;99.90
52965;DHT22;42923;53.220;6.528;2023-08-06T12:02:42;24.50;99.90
52965;DHT22;42923;53.220;6.528;2023-08-06T12:05:13;24.70;99.90
52965;DHT22;42923;53.220;6.528;2023-08-06T12:07:49;24.70;99.90
52965;DHT22;42923;53.220;6.528;2023-08-06T12:10:16;24.50;99.90
52965;DHT22;42923;53.220;6.528;2023-08-06T12:12:42;24.30;99.90
52965;DHT22;42923;53.220;6.528;2023-08-06T12:15:09;24.30;99.90
52965;DHT22;42923;53.220;6.528;2023-08-06T12:17:36;24.10;99.90
52965;DHT22;42923;53.220;6.528;2023-08-06T12:20:06;24.10;99.90
52965;DHT22;42923;53.220;6.528;2023-08-06T12:22:33;24.00;99.90
52965;DHT22;42923;53.220;6.528;2023-08-06T12:25:05;24.00;99.90
52965;DHT22;42923;53.220;6.528;2023-08-06T12:27:43;24.10;99.90
52965;DHT22;42923;53.220;6.528;2023-08-06T12:30:10;24.10;99.90
52965;DHT22;42923;53.220;6.528;2023-08-06T12:32:37;24.10;99.90
52965;DHT22;42923;53.220;6.528;2023-08-06T12:35:04;24.30;99.90
52965;DHT22;42923;53.220;6.528;2023-08-06T12:37:30;24.50;99.90
52965;DHT22;42923;53.220;6.528;2023-08-06T12:39:56;24.70;99.90
52965;DHT22;42923;53.220;6.528;2023-08-06T12:42:22;24.80;99.90
52965;DHT22;42923;53.220;6.528;2023-08-06T12:44:48;25.00;99.90
52965;DHT22;42923;53.220;6.528;2023-08-06T12:47:16;25.10;99.90
52965;DHT22;42923;53.220;6.528;2023-08-06T12:49:42;25.00;99.90
52965;DHT22;42923;53.220;6.528;2023-08-06T12:52:07;25.00;99.90
52965;DHT22;42923;53.220;6.528;2023-08-06T12:54:35;25.30;99.90
52965;DHT22;42923;53.220;6.528;2023-08-06T12:57:04;25.60;99.90
52965;DHT22;42923;53.220;6.528;2023-08-06T12:59:30;25.60;99.90
52965;DHT22;42923;53.220;6.528;2023-08-06T13:01:56;25.70;99.90
52965;DHT22;42923;53.220;6.528;2023-08-06T13:04:22;25.90;99.90
52965;DHT22;42923;53.220;6.528;2023-08-06T13:06:48;26.30;99.90
52965;DHT22;42923;53.220;6.528;2023-08-06T13:09:14;26.70;99.90
52965;DHT22;42923;53.220;6.528;2023-08-06T13:11:40;26.90;99.90
52965;DHT22;42923;53.220;6.528;2023-08-06T13:14:10;27.20;99.90
52965;DHT22;42923;53.220;6.528;2023-08-06T13:16:38;27.30;99.80
52965;DHT22;42923;53.220;6.528;2023-08-06T13:19:04;27.30;98.70
52965;DHT22;42923;53.220;6.528;2023-08-06T13:24:06;27.20;97.90
52965;DHT22;42923;53.220;6.528;2023-08-06T13:26:31;27.30;95.80
52965;DHT22;42923;53.220;6.528;2023-08-06T13:28:58;27.20;95.40
52965;DHT22;42923;53.220;6.528;2023-08-06T13:31:24;27.20;95.20
52965;DHT22;42923;53.220;6.528;2023-08-06T13:33:51;27.00;94.90
52965;DHT22;42923;53.220;6.528;2023-08-06T13:36:17;26.40;93.30
52965;DHT22;42923;53.220;6.528;2023-08-06T13:38:43;25.80;93.80
52965;DHT22;42923;53.220;6.528;2023-08-06T13:41:09;25.50;96.20
52965;DHT22;42923;53.220;6.528;2023-08-06T13:43:34;25.60;97.90
52965;DHT22;42923;53.220;6.528;2023-08-06T13:46:00;25.90;99.40
52965;DHT22;42923;53.220;6.528;2023-08-06T13:48:26;26.30;98.40
52965;DHT22;42923;53.220;6.528;2023-08-06T13:50:52;26.80;96.80
52965;DHT22;42923;53.220;6.528;2023-08-06T13:53:18;27.10;94.10
52965;DHT22;42923;53.220;6.528;2023-08-06T13:55:43;27.30;94.40
52965;DHT22;42923;53.220;6.528;2023-08-06T13:58:09;27.50;94.50
52965;DHT22;42923;53.220;6.528;2023-08-06T14:00:38;27.80;92.00
52965;DHT22;42923;53.220;6.528;2023-08-06T14:03:04;27.80;90.60
52965;DHT22;42923;53.220;6.528;2023-08-06T14:05:29;27.70;89.40
52965;DHT22;42923;53.220;6.528;2023-08-06T14:07:55;27.60;88.10
52965;DHT22;42923;53.220;6.528;2023-08-06T14:10:21;27.50;86.30
52965;DHT22;42923;53.220;6.528;2023-08-06T14:12:47;27.50;86.30
52965;DHT22;42923;53.220;6.528;2023-08-06T14:15:13;27.50;85.40
52965;DHT22;42923;53.220;6.528;2023-08-06T14:17:38;27.60;86.50
52965;DHT22;42923;53.220;6.528;2023-08-06T14:20:06;27.90;85.60
52965;DHT22;42923;53.220;6.528;2023-08-06T14:22:33;27.90;84.40
52965;DHT22;42923;53.220;6.528;2023-08-06T14:24:59;28.00;84.00
52965;DHT22;42923;53.220;6.528;2023-08-06T14:27:25;28.00;81.90
52965;DHT22;42923;53.220;6.528;2023-08-06T14:29:51;28.00;81.30
52965;DHT22;42923;53.220;6.528;2023-08-06T14:32:16;27.90;81.30
52965;DHT22;42923;53.220;6.528;2023-08-06T14:34:45;27.80;81.00
52965;DHT22;42923;53.220;6.528;2023-08-06T14:37:11;27.90;81.40
52965;DHT22;42923;53.220;6.528;2023-08-06T14:39:36;27.90;80.50
52965;DHT22;42923;53.220;6.528;2023-08-06T14:42:04;27.90;80.70
52965;DHT22;42923;53.220;6.528;2023-08-06T14:44:30;28.10;80.70
52965;DHT22;42923;53.220;6.528;2023-08-06T14:46:55;28.40;80.50
52965;DHT22;42923;53.220;6.528;2023-08-06T14:49:21;28.40;79.70
52965;DHT22;42923;53.220;6.528;2023-08-06T14:51:47;28.60;78.80
52965;DHT22;42923;53.220;6.528;2023-08-06T14:54:13;28.70;78.70
52965;DHT22;42923;53.220;6.528;2023-08-06T14:56:38;29.10;78.70
52965;DHT22;42923;53.220;6.528;2023-08-06T14:59:04;29.70;76.10
52965;DHT22;42923;53.220;6.528;2023-08-06T15:01:30;29.80;74.60
52965;DHT22;42923;53.220;6.528;2023-08-06T15:03:56;29.90;73.10
52965;DHT22;42923;53.220;6.528;2023-08-06T15:06:22;29.60;72.90
52965;DHT22;42923;53.220;6.528;2023-08-06T15:08:47;29.30;71.70
52965;DHT22;42923;53.220;6.528;2023-08-06T15:11:14;28.60;71.50
52965;DHT22;42923;53.220;6.528;2023-08-06T15:13:40;27.90;72.20
52965;DHT22;42923;53.220;6.528;2023-08-06T15:16:06;27.10;72.30
52965;DHT22;42923;53.220;6.528;2023-08-06T15:18:32;26.80;73.50
52965;DHT22;42923;53.220;6.528;2023-08-06T15:20:58;26.30;73.20
52965;DHT22;42923;53.220;6.528;2023-08-06T15:23:24;25.50;74.20
52965;DHT22;42923;53.220;6.528;2023-08-06T15:25:50;25.00;75.70
52965;DHT22;42923;53.220;6.528;2023-08-06T15:28:16;24.50;78.00
52965;DHT22;42923;53.220;6.528;2023-08-06T15:30:50;24.80;79.40
52965;DHT22;42923;53.220;6.528;2023-08-06T15:33:17;24.70;79.70
52965;DHT22;42923;53.220;6.528;2023-08-06T15:35:43;24.30;81.60
52965;DHT22;42923;53.220;6.528;2023-08-06T15:38:09;23.80;83.00
52965;DHT22;42923;53.220;6.528;2023-08-06T15:40:35;23.40;84.50